createdAt,value
2023-05-06T00:06:56.949Z,21.60
2023-05-06T00:09:24.962Z,15.57
2023-05-06T00:11:52.672Z,17.83
2023-05-06T00:14:21.566Z,18.92
2023-05-06T00:16:52.182Z,19.60
2023-05-06T00:19:19.716Z,19.95
2023-05-06T00:21:52.121Z,21.30
2023-05-06T00:24:19.814Z,17.98
2023-05-06T00:26:49.059Z,18.95
2023-05-06T00:29:17.819Z,18.63
2023-05-06T00:31:45.784Z,19.98
2023-05-06T00:34:14.893Z,24.05
2023-05-06T00:36:43.013Z,21.83
2023-05-06T00:39:10.689Z,21.98
2023-05-06T00:41:38.465Z,20.15
2023-05-06T00:44:06.615Z,21.90
2023-05-06T00:46:34.427Z,22.27
2023-05-06T00:49:02.254Z,21.55
2023-05-06T00:51:30.154Z,22.08
2023-05-06T00:53:57.920Z,23.95
2023-05-06T00:56:25.984Z,25.60
2023-05-06T00:58:56.545Z,24.65
2023-05-06T01:01:25.895Z,23.80
2023-05-06T01:03:57.869Z,26.27
2023-05-06T01:06:26.097Z,16.27
2023-05-06T01:08:56.665Z,17.83
2023-05-06T01:11:29.051Z,19.42
2023-05-06T01:14:10.000Z,17.73
2023-05-06T01:16:39.632Z,14.82
2023-05-06T01:19:10.374Z,15.77
2023-05-06T01:21:38.536Z,14.45
2023-05-06T01:24:07.389Z,19.98
2023-05-06T01:26:35.128Z,19.33
2023-05-06T01:29:04.702Z,18.25
2023-05-06T01:31:52.694Z,17.77
2023-05-06T01:34:26.336Z,11.38
2023-05-06T01:36:54.878Z,13.57
2023-05-06T01:39:27.235Z,19.90
2023-05-06T01:41:57.701Z,19.95
2023-05-06T01:44:26.834Z,18.20
2023-05-06T01:46:54.868Z,17.52
2023-05-06T01:49:25.378Z,15.10
2023-05-06T01:51:53.370Z,17.60
2023-05-06T01:54:21.457Z,13.85
2023-05-06T01:56:49.884Z,12.38
2023-05-06T01:59:18.939Z,15.10
2023-05-06T02:01:47.876Z,16.45
2023-05-06T02:04:15.821Z,17.75
2023-05-06T02:06:44.841Z,22.23
2023-05-06T02:09:17.420Z,24.38
2023-05-06T02:11:51.416Z,22.90
2023-05-06T02:14:19.904Z,18.90
2023-05-06T02:16:49.202Z,10.82
2023-05-06T02:19:17.966Z,10.88
2023-05-06T02:21:46.013Z,11.23
2023-05-06T02:24:15.053Z,11.68
2023-05-06T02:26:46.192Z,12.30
2023-05-06T02:29:21.019Z,16.02
2023-05-06T02:31:50.105Z,18.35
2023-05-06T02:34:21.908Z,20.65
2023-05-06T02:36:52.028Z,16.33
2023-05-06T02:39:20.355Z,14.02
2023-05-06T02:41:55.184Z,10.65
2023-05-06T02:44:23.781Z,13.35
2023-05-06T02:47:00.995Z,11.48
2023-05-06T02:49:28.912Z,16.25
2023-05-06T02:51:58.129Z,19.15
2023-05-06T02:54:29.475Z,19.23
2023-05-06T02:56:57.223Z,21.48
2023-05-06T02:59:25.738Z,20.27
2023-05-06T03:01:53.604Z,25.38
2023-05-06T03:04:21.872Z,23.33
2023-05-06T03:06:50.355Z,21.58
2023-05-06T03:09:21.983Z,13.73
2023-05-06T03:11:50.323Z,14.88
2023-05-06T03:14:19.703Z,11.82
2023-05-06T03:16:50.580Z,11.18
2023-05-06T03:19:19.412Z,13.52
2023-05-06T03:21:51.032Z,18.23
2023-05-06T03:24:21.195Z,19.27
2023-05-06T03:26:49.740Z,21.17
2023-05-06T03:29:20.879Z,19.83
2023-05-06T03:31:53.031Z,18.25
2023-05-06T03:34:24.194Z,16.17
2023-05-06T03:36:52.324Z,16.08
2023-05-06T03:39:27.042Z,21.40
2023-05-06T03:41:55.471Z,20.98
2023-05-06T03:44:32.307Z,24.15
2023-05-06T03:47:01.147Z,26.60
2023-05-06T03:49:42.425Z,28.27
2023-05-06T03:52:11.181Z,22.38
2023-05-06T03:54:45.153Z,20.95
2023-05-06T03:57:12.774Z,20.33
2023-05-06T04:02:23.448Z,18.00
2023-05-06T04:04:52.226Z,20.25
2023-05-06T04:07:19.886Z,19.83
2023-05-06T04:09:50.231Z,18.38
2023-05-06T04:12:19.701Z,18.33
2023-05-06T04:14:49.274Z,18.33
2023-05-06T04:17:20.704Z,18.95
2023-05-06T04:19:50.119Z,17.67
2023-05-06T04:22:27.652Z,19.27
2023-05-06T04:24:55.920Z,19.38
2023-05-06T04:27:33.654Z,18.23
2023-05-06T04:30:06.712Z,17.35
2023-05-06T04:32:38.811Z,16.80
2023-05-06T04:35:08.982Z,18.15
2023-05-06T04:38:03.599Z,21.58
2023-05-06T04:40:34.238Z,18.35
2023-05-06T04:43:03.191Z,18.40
2023-05-06T04:45:35.708Z,19.63
2023-05-06T04:48:03.874Z,21.63
2023-05-06T04:50:33.408Z,17.55
2023-05-06T04:53:08.651Z,26.45
2023-05-06T04:55:36.866Z,28.98
2023-05-06T04:58:07.704Z,32.40
2023-05-06T05:00:36.483Z,23.50
2023-05-06T05:03:05.590Z,26.63
2023-05-06T05:05:37.844Z,26.67
2023-05-06T05:08:13.918Z,25.33
2023-05-06T05:10:52.049Z,26.48
2023-05-06T05:13:23.721Z,32.20
2023-05-06T05:15:55.845Z,23.90
2023-05-06T05:18:29.610Z,25.73
2023-05-06T05:21:02.474Z,25.08
2023-05-06T05:23:31.674Z,22.80
2023-05-06T05:26:00.138Z,22.70
2023-05-06T05:28:29.399Z,22.55
2023-05-06T05:31:04.916Z,24.77
2023-05-06T05:33:35.674Z,30.08
2023-05-06T05:36:07.275Z,31.88
2023-05-06T05:38:36.856Z,30.50
2023-05-06T05:41:05.739Z,31.10
2023-05-06T05:43:33.466Z,30.20
2023-05-06T05:48:57.714Z,32.53
2023-05-06T05:51:34.487Z,37.33
2023-05-06T05:54:05.203Z,40.70
2023-05-06T05:56:37.037Z,40.70
2023-05-06T05:59:06.733Z,41.78
2023-05-06T06:01:42.799Z,41.47
2023-05-06T06:04:11.636Z,35.80
2023-05-06T06:06:39.504Z,36.30
2023-05-06T06:09:07.401Z,43.33
2023-05-06T06:11:36.664Z,37.23
2023-05-06T06:14:04.461Z,37.33
2023-05-06T06:16:33.532Z,40.65
2023-05-06T06:19:02.056Z,33.60
2023-05-06T06:21:30.479Z,32.50
2023-05-06T06:24:04.475Z,41.35
2023-05-06T06:26:32.703Z,37.28
2023-05-06T06:29:00.895Z,29.70
2023-05-06T06:31:29.611Z,28.90
2023-05-06T06:33:57.319Z,33.33
2023-05-06T06:36:25.079Z,28.83
2023-05-06T06:38:52.969Z,29.17
2023-05-06T06:41:25.389Z,27.33
2023-05-06T06:43:53.010Z,26.85
2023-05-06T06:46:25.978Z,28.13
2023-05-06T06:48:54.461Z,27.50
2023-05-06T06:51:22.151Z,26.10
2023-05-06T06:53:52.425Z,25.40
2023-05-06T06:56:43.772Z,24.13
2023-05-06T06:59:11.532Z,24.38
2023-05-06T07:01:53.684Z,26.85
2023-05-06T07:04:21.679Z,24.10
2023-05-06T07:06:49.868Z,22.95
2023-05-06T07:09:19.072Z,25.17
2023-05-06T07:11:48.318Z,24.98
2023-05-06T07:14:15.932Z,25.02
2023-05-06T07:16:45.345Z,25.02
2023-05-06T07:19:24.461Z,24.80
2023-05-06T07:21:52.510Z,24.77
2023-05-06T07:24:20.108Z,22.05
2023-05-06T07:26:49.707Z,22.08
2023-05-06T07:29:19.479Z,23.30
2023-05-06T07:31:47.859Z,31.63
2023-05-06T07:34:20.830Z,19.65
2023-05-06T07:36:51.036Z,24.15
2023-05-06T07:39:30.231Z,22.02
2023-05-06T07:41:59.038Z,21.55
2023-05-06T07:44:38.924Z,22.48
2023-05-06T07:47:08.545Z,25.85
2023-05-06T07:49:37.588Z,21.05
2023-05-06T07:52:05.487Z,21.95
2023-05-06T07:54:33.015Z,21.42
2023-05-06T07:57:01.273Z,27.13
2023-05-06T07:59:31.942Z,24.52
2023-05-06T08:02:01.886Z,22.95
2023-05-06T08:04:30.945Z,22.80
2023-05-06T08:07:03.073Z,30.20
2023-05-06T08:09:31.702Z,20.98
2023-05-06T08:12:00.274Z,23.13
2023-05-06T08:14:31.610Z,22.75
2023-05-06T08:17:00.730Z,26.13
2023-05-06T08:19:29.531Z,24.08
2023-05-06T08:21:57.030Z,23.55
2023-05-06T08:24:24.964Z,27.30
2023-05-06T08:26:52.686Z,22.08
2023-05-06T08:29:21.071Z,26.73
2023-05-06T08:31:50.144Z,22.30
2023-05-06T08:34:24.477Z,23.08
2023-05-06T08:36:52.756Z,22.92
2023-05-06T08:39:24.126Z,21.40
2023-05-06T08:41:55.107Z,25.50
2023-05-06T08:44:33.134Z,26.88
2023-05-06T08:47:01.296Z,20.33
2023-05-06T08:49:35.609Z,22.33
2023-05-06T08:52:06.010Z,20.38
2023-05-06T08:54:45.198Z,24.75
2023-05-06T08:57:13.363Z,26.75
2023-05-06T08:59:47.342Z,18.63
2023-05-06T09:02:21.013Z,19.45
2023-05-06T09:04:51.450Z,16.30
2023-05-06T09:09:52.942Z,20.20
2023-05-06T09:12:26.061Z,17.88
2023-05-06T09:14:55.689Z,16.40
2023-05-06T09:17:25.140Z,20.48
2023-05-06T09:19:53.886Z,22.17
2023-05-06T09:22:27.039Z,14.02
2023-05-06T09:24:58.042Z,15.48
2023-05-06T09:27:38.234Z,17.10
2023-05-06T09:30:07.742Z,15.13
2023-05-06T09:32:50.123Z,15.13
2023-05-06T09:35:19.844Z,13.27
2023-05-06T09:37:51.342Z,10.52
2023-05-06T09:40:21.079Z,12.75
2023-05-06T09:42:51.966Z,10.02
2023-05-06T09:45:19.845Z,14.10
2023-05-06T09:48:12.830Z,12.82
2023-05-06T09:50:41.415Z,10.20
2023-05-06T09:53:22.690Z,10.40
2023-05-06T09:55:50.788Z,13.38
2023-05-06T09:58:25.385Z,11.38
2023-05-06T10:00:54.077Z,8.50
2023-05-06T10:03:23.713Z,11.43
2023-05-06T10:05:53.234Z,7.00
2023-05-06T10:08:21.844Z,10.90
2023-05-06T10:10:50.419Z,8.93
2023-05-06T10:13:19.114Z,11.82
2023-05-06T10:15:55.272Z,13.73
2023-05-06T10:18:23.269Z,12.35
2023-05-06T10:20:54.332Z,9.95
2023-05-06T10:23:41.968Z,10.52
2023-05-06T10:26:11.735Z,8.38
2023-05-06T10:28:41.432Z,7.95
2023-05-06T10:31:20.262Z,12.45
2023-05-06T10:33:53.567Z,6.60
2023-05-06T10:36:27.543Z,12.05
2023-05-06T10:39:01.057Z,7.07
2023-05-06T10:41:29.741Z,9.55
2023-05-06T10:43:58.140Z,9.05
2023-05-06T10:46:28.215Z,8.47
2023-05-06T10:49:05.042Z,8.65
2023-05-06T10:51:36.518Z,6.15
2023-05-06T10:54:10.284Z,8.35
2023-05-06T10:56:39.478Z,7.03
2023-05-06T10:59:08.905Z,7.57
2023-05-06T11:01:39.444Z,7.68
2023-05-06T11:04:11.368Z,7.15
2023-05-06T11:06:51.040Z,8.70
2023-05-06T11:09:21.825Z,8.15
2023-05-06T11:12:01.033Z,12.18
2023-05-06T11:14:37.312Z,8.98
2023-05-06T11:17:06.530Z,7.32
2023-05-06T11:19:38.082Z,6.80
2023-05-06T11:22:07.181Z,7.95
2023-05-06T11:24:43.784Z,7.32
2023-05-06T11:27:21.517Z,6.78
2023-05-06T11:29:50.005Z,7.00
2023-05-06T11:32:26.382Z,8.77
2023-05-06T11:34:56.021Z,6.05
2023-05-06T11:37:27.280Z,6.55
2023-05-06T11:39:55.261Z,6.57
2023-05-06T11:42:28.127Z,6.18
2023-05-06T11:44:57.439Z,7.22
2023-05-06T11:47:25.386Z,8.07
2023-05-06T11:49:54.763Z,6.07
2023-05-06T11:52:23.557Z,6.63
2023-05-06T11:54:54.646Z,6.88
2023-05-06T11:57:23.487Z,8.73
2023-05-06T11:59:54.335Z,5.30
2023-05-06T12:02:23.893Z,9.68
2023-05-06T12:04:52.978Z,8.07
2023-05-06T12:07:23.866Z,8.25
2023-05-06T12:09:52.527Z,7.95
2023-05-06T12:12:24.646Z,5.88
2023-05-06T12:14:54.150Z,5.85
2023-05-06T12:17:22.163Z,6.88
2023-05-06T12:19:50.727Z,8.70
2023-05-06T12:22:25.101Z,73.80
2023-05-06T12:24:53.552Z,6.78
2023-05-06T12:27:34.677Z,7.53
2023-05-06T12:30:04.953Z,6.10
2023-05-06T12:32:34.113Z,5.20
2023-05-06T12:35:07.759Z,6.05
2023-05-06T12:37:36.459Z,7.03
2023-05-06T12:40:04.217Z,6.47
2023-05-06T12:42:36.119Z,4.55
2023-05-06T12:45:16.648Z,7.95
2023-05-06T12:47:59.395Z,3.80
2023-05-06T12:50:33.744Z,7.22
2023-05-06T12:53:01.789Z,4.45
2023-05-06T12:55:30.943Z,6.10
2023-05-06T12:57:58.623Z,7.03
2023-05-06T13:00:26.575Z,7.13
2023-05-06T13:02:55.483Z,6.05
2023-05-06T13:05:23.435Z,5.50
2023-05-06T13:07:51.617Z,6.43
2023-05-06T13:10:20.818Z,45.90
2023-05-06T13:12:59.556Z,8.27
2023-05-06T13:15:28.955Z,3.67
2023-05-06T13:17:57.536Z,5.07
2023-05-06T13:20:26.993Z,5.53
2023-05-06T13:22:55.284Z,5.32
2023-05-06T13:25:23.468Z,4.00
2023-05-06T13:27:51.615Z,3.45
2023-05-06T13:30:19.997Z,2.88
2023-05-06T13:32:53.351Z,9.45
2023-05-06T13:35:21.192Z,5.13
2023-05-06T13:37:52.881Z,6.38
2023-05-06T13:40:21.454Z,5.95
2023-05-06T13:42:50.071Z,4.13
2023-05-06T13:45:19.379Z,4.63
2023-05-06T13:47:49.130Z,5.00
2023-05-06T13:50:17.781Z,4.10
2023-05-06T13:52:45.654Z,4.85
2023-05-06T13:55:14.394Z,4.10
2023-05-06T13:57:42.178Z,4.38
2023-05-06T14:00:11.582Z,5.07
2023-05-06T14:02:40.121Z,4.72
2023-05-06T14:05:09.007Z,4.05
2023-05-06T14:07:40.555Z,4.93
2023-05-06T14:10:09.227Z,6.30
2023-05-06T14:12:37.526Z,5.70
2023-05-06T14:15:09.535Z,5.35
2023-05-06T14:17:38.641Z,6.40
2023-05-06T14:20:06.830Z,3.58
2023-05-06T14:22:34.775Z,6.45
2023-05-06T14:25:02.544Z,8.75
2023-05-06T14:27:31.116Z,3.80
2023-05-06T14:30:00.482Z,5.30
2023-05-06T14:32:28.772Z,6.25
2023-05-06T14:34:56.901Z,8.40
2023-05-06T14:37:24.869Z,4.28
2023-05-06T14:39:52.499Z,4.70
2023-05-06T14:42:20.807Z,4.43
2023-05-06T14:44:50.628Z,4.90
2023-05-06T14:47:19.155Z,7.28
2023-05-06T14:49:48.134Z,2.75
2023-05-06T14:52:17.339Z,4.95
2023-05-06T14:54:44.960Z,4.32
2023-05-06T14:57:12.926Z,3.83
2023-05-06T14:59:41.982Z,4.85
2023-05-06T15:02:13.691Z,5.40
2023-05-06T15:04:42.888Z,5.07
2023-05-06T15:07:10.935Z,6.43
2023-05-06T15:09:41.075Z,5.90
2023-05-06T15:14:39.432Z,3.95
2023-05-06T15:17:13.598Z,3.50
2023-05-06T15:19:43.768Z,2.25
2023-05-06T15:22:11.894Z,5.65
2023-05-06T15:24:39.843Z,4.30
2023-05-06T15:27:07.946Z,8.63
2023-05-06T15:29:35.848Z,5.38
2023-05-06T15:32:04.169Z,4.30
2023-05-06T15:34:32.088Z,5.78
2023-05-06T15:37:02.696Z,3.92
2023-05-06T15:39:37.818Z,4.80
2023-05-06T15:42:06.452Z,4.55
2023-05-06T15:44:34.843Z,4.47
2023-05-06T15:47:03.322Z,3.97
2023-05-06T15:52:03.204Z,6.35
2023-05-06T15:54:32.720Z,3.38
2023-05-06T15:57:04.908Z,3.28
2023-05-06T15:59:34.600Z,5.18
2023-05-06T16:04:34.044Z,3.72
2023-05-06T16:07:02.660Z,2.10
2023-05-06T16:09:34.896Z,3.40
2023-05-06T16:12:03.572Z,3.40
2023-05-06T16:14:31.266Z,5.57
2023-05-06T16:17:00.872Z,5.28
2023-05-06T16:19:30.880Z,4.63
2023-05-06T16:22:00.988Z,3.95
2023-05-06T16:24:35.017Z,3.67
2023-05-06T16:27:06.528Z,3.40
2023-05-06T16:29:35.651Z,4.95
2023-05-06T16:32:03.543Z,6.38
2023-05-06T16:34:31.312Z,3.53
2023-05-06T16:37:00.735Z,5.22
2023-05-06T16:39:28.958Z,3.00
2023-05-06T16:41:58.108Z,5.40
2023-05-06T16:44:38.575Z,5.35
2023-05-06T16:49:35.121Z,3.95
2023-05-06T16:52:04.099Z,4.05
2023-05-06T16:54:31.967Z,6.13
2023-05-06T16:57:00.396Z,3.88
2023-05-06T16:59:28.120Z,8.13
2023-05-06T17:01:56.090Z,11.93
2023-05-06T17:04:27.176Z,7.78
2023-05-06T17:06:57.148Z,7.03
2023-05-06T17:09:25.066Z,7.55
2023-05-06T17:11:52.919Z,6.90
2023-05-06T17:14:20.678Z,8.05
2023-05-06T17:16:52.296Z,11.32
2023-05-06T17:19:21.033Z,9.13
2023-05-06T17:21:50.226Z,10.98
2023-05-06T17:24:20.963Z,8.53
2023-05-06T17:29:17.813Z,9.68
2023-05-06T17:31:54.276Z,8.55
2023-05-06T17:36:58.841Z,9.55
2023-05-06T17:39:26.840Z,8.05
2023-05-06T17:41:54.506Z,12.25
2023-05-06T17:44:22.627Z,8.75
2023-05-06T17:46:50.842Z,11.57
2023-05-06T17:49:19.245Z,8.27
2023-05-06T17:51:47.325Z,6.38
2023-05-06T17:54:15.254Z,14.10
2023-05-06T17:56:43.966Z,11.07
2023-05-06T17:59:12.550Z,9.68
2023-05-06T18:01:40.711Z,6.32
2023-05-06T18:04:08.727Z,7.10
2023-05-06T18:06:36.353Z,6.47
2023-05-06T18:09:05.792Z,7.13
2023-05-06T18:11:33.315Z,9.43
2023-05-06T18:14:00.954Z,8.85
2023-05-06T18:16:28.700Z,9.05
2023-05-06T18:18:56.655Z,12.23
2023-05-06T18:21:24.537Z,8.50
2023-05-06T18:23:58.628Z,8.95
2023-05-06T18:26:44.114Z,10.13
2023-05-06T18:29:14.109Z,6.32
2023-05-06T18:31:42.555Z,4.95
2023-05-06T18:34:10.576Z,5.70
2023-05-06T18:36:38.293Z,10.02
2023-05-06T18:39:06.077Z,8.73
2023-05-06T18:41:33.801Z,7.00
2023-05-06T18:44:03.574Z,8.60
2023-05-06T18:46:34.794Z,7.20
2023-05-06T18:49:02.806Z,9.25
2023-05-06T18:51:32.101Z,9.25
2023-05-06T18:53:59.918Z,8.10
2023-05-06T18:56:27.920Z,10.77
2023-05-06T18:58:57.492Z,6.60
2023-05-06T19:01:25.733Z,7.68
2023-05-06T19:03:53.700Z,5.82
2023-05-06T19:06:21.459Z,7.00
2023-05-06T19:08:51.187Z,8.88
2023-05-06T19:11:21.378Z,10.93
2023-05-06T19:13:52.325Z,5.75
2023-05-06T19:16:20.333Z,6.03
2023-05-06T19:18:50.603Z,5.65
2023-05-06T19:23:51.313Z,5.63
2023-05-06T19:26:21.562Z,6.13
2023-05-06T19:28:50.872Z,8.60
2023-05-06T19:31:20.671Z,6.53
2023-05-06T19:33:51.012Z,5.60
2023-05-06T19:36:21.742Z,9.57
2023-05-06T19:38:50.489Z,8.32
2023-05-06T19:41:19.045Z,7.18
2023-05-06T19:43:48.851Z,6.47
2023-05-06T19:46:21.217Z,6.45
2023-05-06T19:48:50.239Z,8.45
2023-05-06T19:51:21.668Z,8.80
2023-05-06T19:53:51.149Z,8.63
2023-05-06T19:56:20.416Z,9.32
2023-05-06T19:58:51.539Z,7.53
2023-05-06T20:01:22.882Z,11.48
2023-05-06T20:03:52.136Z,6.50
2023-05-06T20:06:20.749Z,9.25
2023-05-06T20:08:51.461Z,8.98
2023-05-06T20:11:20.135Z,8.30
2023-05-06T20:13:52.894Z,10.48
2023-05-06T20:16:21.098Z,9.20
2023-05-06T20:18:52.289Z,9.55
2023-05-06T20:21:20.016Z,7.88
2023-05-06T20:23:50.065Z,10.07
2023-05-06T20:26:21.895Z,8.80
2023-05-06T20:28:52.988Z,11.05
2023-05-06T20:31:20.686Z,10.67
2023-05-06T20:33:51.552Z,14.13
2023-05-06T20:36:21.206Z,8.52
2023-05-06T20:38:52.399Z,9.88
2023-05-06T20:41:21.513Z,8.48
2023-05-06T20:43:53.165Z,14.40
2023-05-06T20:46:24.231Z,9.10
2023-05-06T20:48:54.092Z,10.07
2023-05-06T20:51:21.895Z,12.73
2023-05-06T20:53:52.406Z,7.32
2023-05-06T20:56:22.393Z,7.13
2023-05-06T20:58:50.844Z,14.52
2023-05-06T21:01:20.330Z,8.65
2023-05-06T21:03:51.100Z,8.18
2023-05-06T21:06:20.161Z,9.10
2023-05-06T21:08:49.101Z,9.05
2023-05-06T21:11:17.676Z,8.15
2023-05-06T21:13:46.076Z,5.90
2023-05-06T21:16:14.796Z,7.07
2023-05-06T21:18:43.321Z,8.68
2023-05-06T21:21:11.416Z,7.53
2023-05-06T21:23:40.596Z,6.60
2023-05-06T21:26:09.689Z,6.30
2023-05-06T21:28:38.401Z,6.00
2023-05-06T21:31:06.266Z,8.50
2023-05-06T21:33:34.331Z,6.35
2023-05-06T21:36:01.947Z,5.85
2023-05-06T21:38:30.483Z,7.32
2023-05-06T21:40:58.457Z,9.57
2023-05-06T21:43:29.824Z,10.00
2023-05-06T21:45:58.648Z,10.18
2023-05-06T21:48:35.394Z,8.13
2023-05-06T21:51:06.337Z,9.45
2023-05-06T21:53:35.634Z,6.32
2023-05-06T21:56:03.382Z,11.27
2023-05-06T21:58:31.491Z,9.05
2023-05-06T22:00:59.298Z,7.25
2023-05-06T22:03:29.078Z,10.68
2023-05-06T22:05:57.154Z,7.55
2023-05-06T22:08:25.290Z,8.82
2023-05-06T22:10:53.572Z,8.07
2023-05-06T22:13:22.791Z,9.75
2023-05-06T22:15:52.564Z,7.20
2023-05-06T22:18:20.966Z,9.88
2023-05-06T22:20:52.621Z,9.32
2023-05-06T22:23:22.122Z,9.18
2023-05-06T22:25:53.341Z,9.32
2023-05-06T22:28:21.800Z,6.70
2023-05-06T22:30:51.863Z,9.48
2023-05-06T22:35:53.304Z,7.97
2023-05-06T22:38:20.867Z,7.32
2023-05-06T22:40:52.656Z,10.32
2023-05-06T22:43:20.707Z,9.15
2023-05-06T22:45:49.554Z,6.35
2023-05-06T22:48:19.057Z,9.13
2023-05-06T22:50:47.804Z,7.30
2023-05-06T22:53:15.860Z,6.82
2023-05-06T22:55:49.447Z,6.93
2023-05-06T22:58:18.782Z,5.88
2023-05-06T23:00:48.678Z,7.05
2023-05-06T23:03:22.473Z,5.28
2023-05-06T23:05:54.379Z,4.28
2023-05-06T23:08:28.023Z,6.60
2023-05-06T23:10:56.363Z,5.32
2023-05-06T23:13:24.049Z,9.80
2023-05-06T23:15:52.193Z,4.70
2023-05-06T23:18:21.750Z,8.05
2023-05-06T23:20:51.868Z,10.37
2023-05-06T23:23:20.163Z,6.97
2023-05-06T23:25:48.982Z,5.85
2023-05-06T23:28:18.008Z,8.35
2023-05-06T23:30:45.800Z,6.40
2023-05-06T23:33:13.778Z,7.88
2023-05-06T23:35:41.505Z,5.68
2023-05-06T23:38:09.339Z,6.50
2023-05-06T23:40:37.444Z,6.90
2023-05-06T23:43:07.648Z,8.82
2023-05-06T23:45:35.278Z,5.30
2023-05-06T23:48:03.139Z,5.03
2023-05-06T23:50:30.997Z,7.82
2023-05-06T23:52:58.659Z,6.53
2023-05-06T23:55:26.591Z,5.50
2023-05-06T23:57:57.854Z,6.13
